sensor_id;sensor_type;location;lat;lon;timestamp;P1;durP1;ratioP1;P2;durP2;ratioP2
2299;SDS011;1158;48.750;9.078;2024-03-23T00:54:07;7.13;;;4.30;;
2299;SDS011;1158;48.750;9.078;2024-03-23T00:56:33;8.10;;;4.63;;
2299;SDS011;1158;48.750;9.078;2024-03-23T00:59:00;5.57;;;4.10;;
2299;SDS011;1158;48.750;9.078;2024-03-23T01:01:26;5.60;;;4.30;;
2299;SDS011;1158;48.750;9.078;2024-03-23T01:03:52;7.10;;;4.40;;
2299;SDS011;1158;48.750;9.078;2024-03-23T01:06:18;7.00;;;4.07;;
2299;SDS011;1158;48.750;9.078;2024-03-23T01:08:45;7.73;;;3.80;;
2299;SDS011;1158;48.750;9.078;2024-03-23T01:11:12;6.17;;;3.43;;
2299;SDS011;1158;48.750;9.078;2024-03-23T01:13:39;4.97;;;3.93;;
2299;SDS011;1158;48.750;9.078;2024-03-23T01:16:04;7.93;;;3.90;;
2299;SDS011;1158;48.750;9.078;2024-03-23T01:18:31;4.90;;;3.67;;
2299;SDS011;1158;48.750;9.078;2024-03-23T01:20:58;5.13;;;3.30;;
2299;SDS011;1158;48.750;9.078;2024-03-23T01:23:24;4.50;;;3.93;;
2299;SDS011;1158;48.750;9.078;2024-03-23T01:25:53;5.60;;;3.73;;
2299;SDS011;1158;48.750;9.078;2024-03-23T01:28:22;6.27;;;3.70;;
2299;SDS011;1158;48.750;9.078;2024-03-23T01:30:48;6.67;;;3.97;;
2299;SDS011;1158;48.750;9.078;2024-03-23T01:33:16;8.80;;;4.07;;
2299;SDS011;1158;48.750;9.078;2024-03-23T01:35:41;6.80;;;3.47;;
2299;SDS011;1158;48.750;9.078;2024-03-23T01:38:08;5.83;;;3.70;;
2299;SDS011;1158;48.750;9.078;2024-03-23T01:40:34;4.70;;;3.80;;
2299;SDS011;1158;48.750;9.078;2024-03-23T01:43:03;6.83;;;3.90;;
2299;SDS011;1158;48.750;9.078;2024-03-23T01:45:31;8.27;;;4.37;;
2299;SDS011;1158;48.750;9.078;2024-03-23T01:47:58;5.83;;;4.13;;
2299;SDS011;1158;48.750;9.078;2024-03-23T01:50:24;5.70;;;3.73;;
2299;SDS011;1158;48.750;9.078;2024-03-23T01:52:51;7.10;;;3.97;;
2299;SDS011;1158;48.750;9.078;2024-03-23T01:55:18;8.50;;;3.70;;
2299;SDS011;1158;48.750;9.078;2024-03-23T01:57:45;8.40;;;3.63;;
2299;SDS011;1158;48.750;9.078;2024-03-23T02:00:11;7.03;;;4.33;;
2299;SDS011;1158;48.750;9.078;2024-03-23T02:02:44;6.07;;;3.50;;
2299;SDS011;1158;48.750;9.078;2024-03-23T02:05:10;5.77;;;4.23;;
2299;SDS011;1158;48.750;9.078;2024-03-23T02:07:37;3.87;;;3.23;;
2299;SDS011;1158;48.750;9.078;2024-03-23T02:10:04;7.20;;;3.80;;
2299;SDS011;1158;48.750;9.078;2024-03-23T02:12:32;5.30;;;3.70;;
2299;SDS011;1158;48.750;9.078;2024-03-23T02:14:58;5.93;;;4.27;;
2299;SDS011;1158;48.750;9.078;2024-03-23T02:17:25;8.53;;;3.67;;
2299;SDS011;1158;48.750;9.078;2024-03-23T02:19:52;6.70;;;3.60;;
2299;SDS011;1158;48.750;9.078;2024-03-23T02:22:19;5.80;;;3.60;;
2299;SDS011;1158;48.750;9.078;2024-03-23T02:24:46;4.43;;;3.20;;
2299;SDS011;1158;48.750;9.078;2024-03-23T02:27:12;7.53;;;4.47;;
2299;SDS011;1158;48.750;9.078;2024-03-23T02:29:38;4.93;;;4.17;;
2299;SDS011;1158;48.750;9.078;2024-03-23T02:32:05;7.80;;;3.77;;
2299;SDS011;1158;48.750;9.078;2024-03-23T02:34:34;8.70;;;4.67;;
2299;SDS011;1158;48.750;9.078;2024-03-23T02:37:00;6.07;;;3.40;;
2299;SDS011;1158;48.750;9.078;2024-03-23T02:39:26;5.90;;;4.20;;
2299;SDS011;1158;48.750;9.078;2024-03-23T02:41:54;13.00;;;4.40;;
2299;SDS011;1158;48.750;9.078;2024-03-23T02:44:20;8.27;;;3.53;;
2299;SDS011;1158;48.750;9.078;2024-03-23T02:46:47;4.90;;;3.20;;
2299;SDS011;1158;48.750;9.078;2024-03-23T02:49:13;6.30;;;3.80;;
2299;SDS011;1158;48.750;9.078;2024-03-23T02:51:40;6.50;;;4.20;;
2299;SDS011;1158;48.750;9.078;2024-03-23T02:54:06;5.50;;;3.23;;
2299;SDS011;1158;48.750;9.078;2024-03-23T02:56:33;5.93;;;3.90;;
2299;SDS011;1158;48.750;9.078;2024-03-23T02:59:00;4.43;;;3.70;;
2299;SDS011;1158;48.750;9.078;2024-03-23T03:01:27;6.70;;;3.77;;
2299;SDS011;1158;48.750;9.078;2024-03-23T03:03:53;6.70;;;3.47;;
2299;SDS011;1158;48.750;9.078;2024-03-23T03:06:23;4.77;;;2.87;;
2299;SDS011;1158;48.750;9.078;2024-03-23T03:08:49;5.70;;;3.70;;
2299;SDS011;1158;48.750;9.078;2024-03-23T03:11:15;4.63;;;3.47;;
2299;SDS011;1158;48.750;9.078;2024-03-23T03:13:41;5.60;;;3.60;;
2299;SDS011;1158;48.750;9.078;2024-03-23T03:16:10;6.00;;;3.50;;
2299;SDS011;1158;48.750;9.078;2024-03-23T03:18:36;4.63;;;4.00;;
2299;SDS011;1158;48.750;9.078;2024-03-23T03:21:02;4.70;;;3.40;;
2299;SDS011;1158;48.750;9.078;2024-03-23T03:23:30;7.97;;;3.63;;
2299;SDS011;1158;48.750;9.078;2024-03-23T03:25:57;4.83;;;3.10;;
2299;SDS011;1158;48.750;9.078;2024-03-23T03:28:23;4.97;;;3.17;;
2299;SDS011;1158;48.750;9.078;2024-03-23T03:30:51;5.03;;;2.90;;
2299;SDS011;1158;48.750;9.078;2024-03-23T03:33:18;6.30;;;3.57;;
2299;SDS011;1158;48.750;9.078;2024-03-23T03:35:45;4.73;;;3.07;;
2299;SDS011;1158;48.750;9.078;2024-03-23T03:38:11;6.30;;;3.67;;
2299;SDS011;1158;48.750;9.078;2024-03-23T03:40:37;4.67;;;3.33;;
2299;SDS011;1158;48.750;9.078;2024-03-23T03:43:03;5.33;;;3.33;;
2299;SDS011;1158;48.750;9.078;2024-03-23T03:45:30;5.10;;;3.03;;
2299;SDS011;1158;48.750;9.078;2024-03-23T03:47:56;7.17;;;3.93;;
2299;SDS011;1158;48.750;9.078;2024-03-23T03:50:25;5.57;;;4.10;;
2299;SDS011;1158;48.750;9.078;2024-03-23T03:52:51;8.03;;;3.17;;
2299;SDS011;1158;48.750;9.078;2024-03-23T03:55:18;10.03;;;3.57;;
2299;SDS011;1158;48.750;9.078;2024-03-23T03:57:43;7.50;;;4.23;;
2299;SDS011;1158;48.750;9.078;2024-03-23T04:00:10;5.40;;;3.80;;
2299;SDS011;1158;48.750;9.078;2024-03-23T04:02:37;6.63;;;3.80;;
2299;SDS011;1158;48.750;9.078;2024-03-23T04:05:04;7.10;;;3.80;;
2299;SDS011;1158;48.750;9.078;2024-03-23T04:07:32;6.13;;;3.80;;
2299;SDS011;1158;48.750;9.078;2024-03-23T04:09:59;4.10;;;3.23;;
2299;SDS011;1158;48.750;9.078;2024-03-23T04:12:24;3.90;;;3.37;;
2299;SDS011;1158;48.750;9.078;2024-03-23T04:14:51;9.90;;;3.57;;
2299;SDS011;1158;48.750;9.078;2024-03-23T04:17:17;8.17;;;3.97;;
2299;SDS011;1158;48.750;9.078;2024-03-23T04:19:44;11.97;;;3.47;;
2299;SDS011;1158;48.750;9.078;2024-03-23T04:22:09;8.07;;;3.70;;
2299;SDS011;1158;48.750;9.078;2024-03-23T04:24:38;4.90;;;3.30;;
2299;SDS011;1158;48.750;9.078;2024-03-23T04:27:03;5.00;;;3.77;;
2299;SDS011;1158;48.750;9.078;2024-03-23T04:29:30;5.10;;;3.47;;
2299;SDS011;1158;48.750;9.078;2024-03-23T04:31:56;6.30;;;3.70;;
2299;SDS011;1158;48.750;9.078;2024-03-23T04:34:23;5.97;;;3.50;;
2299;SDS011;1158;48.750;9.078;2024-03-23T04:36:49;5.33;;;3.50;;
2299;SDS011;1158;48.750;9.078;2024-03-23T04:39:15;7.20;;;3.63;;
2299;SDS011;1158;48.750;9.078;2024-03-23T04:41:44;6.20;;;3.70;;
2299;SDS011;1158;48.750;9.078;2024-03-23T04:44:10;4.97;;;3.47;;
2299;SDS011;1158;48.750;9.078;2024-03-23T04:46:37;5.80;;;3.93;;
2299;SDS011;1158;48.750;9.078;2024-03-23T04:49:04;5.60;;;4.00;;
2299;SDS011;1158;48.750;9.078;2024-03-23T04:51:34;7.00;;;4.03;;
2299;SDS011;1158;48.750;9.078;2024-03-23T04:54:02;5.00;;;3.90;;
2299;SDS011;1158;48.750;9.078;2024-03-23T04:56:28;8.20;;;4.70;;
2299;SDS011;1158;48.750;9.078;2024-03-23T04:58:57;9.60;;;5.70;;
2299;SDS011;1158;48.750;9.078;2024-03-23T05:01:26;7.73;;;5.80;;
2299;SDS011;1158;48.750;9.078;2024-03-23T05:03:52;14.93;;;5.83;;
2299;SDS011;1158;48.750;9.078;2024-03-23T05:06:18;11.60;;;8.60;;
2299;SDS011;1158;48.750;9.078;2024-03-23T05:08:45;14.60;;;10.10;;
2299;SDS011;1158;48.750;9.078;2024-03-23T05:11:11;12.53;;;9.90;;
2299;SDS011;1158;48.750;9.078;2024-03-23T05:13:38;18.07;;;11.57;;
2299;SDS011;1158;48.750;9.078;2024-03-23T05:16:05;18.03;;;11.73;;
2299;SDS011;1158;48.750;9.078;2024-03-23T05:18:32;20.30;;;14.53;;
2299;SDS011;1158;48.750;9.078;2024-03-23T05:20:58;25.67;;;15.50;;
2299;SDS011;1158;48.750;9.078;2024-03-23T05:23:25;22.00;;;14.80;;
2299;SDS011;1158;48.750;9.078;2024-03-23T05:25:51;24.20;;;15.77;;
2299;SDS011;1158;48.750;9.078;2024-03-23T05:28:18;27.17;;;18.00;;
2299;SDS011;1158;48.750;9.078;2024-03-23T05:30:44;27.53;;;17.20;;
2299;SDS011;1158;48.750;9.078;2024-03-23T05:33:18;29.47;;;15.73;;
2299;SDS011;1158;48.750;9.078;2024-03-23T05:35:44;29.20;;;18.47;;
2299;SDS011;1158;48.750;9.078;2024-03-23T05:38:10;27.77;;;17.13;;
2299;SDS011;1158;48.750;9.078;2024-03-23T05:40:36;29.10;;;16.97;;
2299;SDS011;1158;48.750;9.078;2024-03-23T05:43:05;27.50;;;16.63;;
2299;SDS011;1158;48.750;9.078;2024-03-23T05:45:32;27.53;;;16.03;;
2299;SDS011;1158;48.750;9.078;2024-03-23T05:47:57;26.83;;;17.00;;
2299;SDS011;1158;48.750;9.078;2024-03-23T05:50:26;21.57;;;13.87;;
2299;SDS011;1158;48.750;9.078;2024-03-23T05:52:51;22.10;;;12.83;;
2299;SDS011;1158;48.750;9.078;2024-03-23T05:55:18;20.97;;;11.70;;
2299;SDS011;1158;48.750;9.078;2024-03-23T05:57:44;19.30;;;10.60;;
2299;SDS011;1158;48.750;9.078;2024-03-23T06:00:11;17.73;;;9.23;;
2299;SDS011;1158;48.750;9.078;2024-03-23T06:02:41;17.93;;;10.07;;
2299;SDS011;1158;48.750;9.078;2024-03-23T06:05:09;14.90;;;8.97;;
2299;SDS011;1158;48.750;9.078;2024-03-23T06:07:36;12.13;;;7.87;;
2299;SDS011;1158;48.750;9.078;2024-03-23T06:10:03;12.33;;;6.70;;
2299;SDS011;1158;48.750;9.078;2024-03-23T06:12:30;10.47;;;5.70;;
2299;SDS011;1158;48.750;9.078;2024-03-23T06:14:57;8.90;;;5.03;;
2299;SDS011;1158;48.750;9.078;2024-03-23T06:17:23;7.37;;;4.43;;
2299;SDS011;1158;48.750;9.078;2024-03-23T06:19:50;8.17;;;4.50;;
2299;SDS011;1158;48.750;9.078;2024-03-23T06:22:16;6.37;;;3.70;;
2299;SDS011;1158;48.750;9.078;2024-03-23T06:24:44;5.60;;;3.03;;
2299;SDS011;1158;48.750;9.078;2024-03-23T06:27:10;3.93;;;2.30;;
2299;SDS011;1158;48.750;9.078;2024-03-23T06:29:36;4.00;;;2.20;;
2299;SDS011;1158;48.750;9.078;2024-03-23T06:32:03;2.90;;;1.63;;
2299;SDS011;1158;48.750;9.078;2024-03-23T06:34:29;3.50;;;1.87;;
2299;SDS011;1158;48.750;9.078;2024-03-23T06:36:56;2.30;;;1.37;;
2299;SDS011;1158;48.750;9.078;2024-03-23T06:39:21;1.80;;;0.90;;
2299;SDS011;1158;48.750;9.078;2024-03-23T06:41:52;2.50;;;1.93;;
2299;SDS011;1158;48.750;9.078;2024-03-23T06:44:18;2.73;;;1.20;;
2299;SDS011;1158;48.750;9.078;2024-03-23T06:46:45;2.20;;;1.30;;
2299;SDS011;1158;48.750;9.078;2024-03-23T06:49:11;2.10;;;1.10;;
2299;SDS011;1158;48.750;9.078;2024-03-23T06:51:38;2.27;;;1.20;;
2299;SDS011;1158;48.750;9.078;2024-03-23T06:54:04;1.83;;;1.00;;
2299;SDS011;1158;48.750;9.078;2024-03-23T06:56:31;2.03;;;1.00;;
2299;SDS011;1158;48.750;9.078;2024-03-23T06:58:59;1.80;;;1.00;;
2299;SDS011;1158;48.750;9.078;2024-03-23T07:01:25;2.30;;;1.17;;
2299;SDS011;1158;48.750;9.078;2024-03-23T07:03:51;3.73;;;1.03;;
2299;SDS011;1158;48.750;9.078;2024-03-23T07:06:18;2.40;;;1.23;;
2299;SDS011;1158;48.750;9.078;2024-03-23T07:08:44;1.70;;;0.97;;
2299;SDS011;1158;48.750;9.078;2024-03-23T07:11:10;1.70;;;0.87;;
2299;SDS011;1158;48.750;9.078;2024-03-23T07:13:36;1.90;;;1.00;;
2299;SDS011;1158;48.750;9.078;2024-03-23T07:16:05;1.40;;;0.80;;
2299;SDS011;1158;48.750;9.078;2024-03-23T07:18:31;2.30;;;1.17;;
2299;SDS011;1158;48.750;9.078;2024-03-23T07:20:59;1.50;;;0.87;;
2299;SDS011;1158;48.750;9.078;2024-03-23T07:23:25;1.80;;;0.90;;
2299;SDS011;1158;48.750;9.078;2024-03-23T07:25:58;1.60;;;0.90;;
2299;SDS011;1158;48.750;9.078;2024-03-23T07:28:24;1.30;;;0.70;;
2299;SDS011;1158;48.750;9.078;2024-03-23T07:31:01;6.47;;;0.97;;
2299;SDS011;1158;48.750;9.078;2024-03-23T07:33:30;2.90;;;1.07;;
2299;SDS011;1158;48.750;9.078;2024-03-23T07:35:57;1.40;;;0.80;;
2299;SDS011;1158;48.750;9.078;2024-03-23T07:38:24;1.37;;;0.83;;
2299;SDS011;1158;48.750;9.078;2024-03-23T07:40:52;1.70;;;0.80;;
2299;SDS011;1158;48.750;9.078;2024-03-23T07:43:21;1.97;;;0.80;;
2299;SDS011;1158;48.750;9.078;2024-03-23T07:45:51;3.80;;;0.90;;
2299;SDS011;1158;48.750;9.078;2024-03-23T07:48:17;1.33;;;0.83;;
2299;SDS011;1158;48.750;9.078;2024-03-23T07:50:46;2.10;;;1.23;;
2299;SDS011;1158;48.750;9.078;2024-03-23T07:53:11;1.30;;;0.70;;
2299;SDS011;1158;48.750;9.078;2024-03-23T07:55:38;1.90;;;0.90;;
2299;SDS011;1158;48.750;9.078;2024-03-23T07:58:04;1.73;;;1.00;;
2299;SDS011;1158;48.750;9.078;2024-03-23T08:00:31;2.20;;;1.30;;
2299;SDS011;1158;48.750;9.078;2024-03-23T08:02:56;1.80;;;0.93;;
2299;SDS011;1158;48.750;9.078;2024-03-23T08:05:25;1.40;;;0.87;;
2299;SDS011;1158;48.750;9.078;2024-03-23T08:07:52;1.40;;;0.90;;
2299;SDS011;1158;48.750;9.078;2024-03-23T08:10:19;2.50;;;1.00;;
2299;SDS011;1158;48.750;9.078;2024-03-23T08:12:45;2.13;;;0.90;;
2299;SDS011;1158;48.750;9.078;2024-03-23T08:15:12;2.10;;;0.97;;
2299;SDS011;1158;48.750;9.078;2024-03-23T08:17:38;2.17;;;1.03;;
2299;SDS011;1158;48.750;9.078;2024-03-23T08:20:05;1.70;;;1.17;;
2299;SDS011;1158;48.750;9.078;2024-03-23T08:22:33;3.07;;;1.37;;
2299;SDS011;1158;48.750;9.078;2024-03-23T08:25:01;2.00;;;1.30;;
2299;SDS011;1158;48.750;9.078;2024-03-23T08:27:27;2.00;;;1.37;;
2299;SDS011;1158;48.750;9.078;2024-03-23T08:29:54;2.80;;;1.43;;
2299;SDS011;1158;48.750;9.078;2024-03-23T08:32:20;3.70;;;1.80;;
2299;SDS011;1158;48.750;9.078;2024-03-23T08:34:46;2.10;;;1.50;;
2299;SDS011;1158;48.750;9.078;2024-03-23T08:37:12;2.10;;;1.50;;
2299;SDS011;1158;48.750;9.078;2024-03-23T08:39:39;3.80;;;1.63;;
2299;SDS011;1158;48.750;9.078;2024-03-23T08:42:06;3.27;;;1.67;;
2299;SDS011;1158;48.750;9.078;2024-03-23T08:44:33;2.60;;;1.47;;
2299;SDS011;1158;48.750;9.078;2024-03-23T08:46:59;3.40;;;1.67;;
2299;SDS011;1158;48.750;9.078;2024-03-23T08:49:26;3.00;;;1.33;;
2299;SDS011;1158;48.750;9.078;2024-03-23T08:51:52;3.70;;;1.60;;
2299;SDS011;1158;48.750;9.078;2024-03-23T08:54:19;3.03;;;1.43;;
2299;SDS011;1158;48.750;9.078;2024-03-23T08:56:45;2.60;;;1.33;;
2299;SDS011;1158;48.750;9.078;2024-03-23T08:59:13;4.60;;;1.80;;
2299;SDS011;1158;48.750;9.078;2024-03-23T09:01:39;4.20;;;1.70;;
2299;SDS011;1158;48.750;9.078;2024-03-23T09:04:05;5.83;;;1.83;;
2299;SDS011;1158;48.750;9.078;2024-03-23T09:06:31;4.50;;;1.70;;
2299;SDS011;1158;48.750;9.078;2024-03-23T09:08:58;4.87;;;1.80;;
2299;SDS011;1158;48.750;9.078;2024-03-23T09:11:24;7.27;;;2.93;;
2299;SDS011;1158;48.750;9.078;2024-03-23T09:13:50;3.43;;;2.40;;
2299;SDS011;1158;48.750;9.078;2024-03-23T09:16:18;4.43;;;2.63;;
2299;SDS011;1158;48.750;9.078;2024-03-23T09:18:44;3.97;;;2.47;;
2299;SDS011;1158;48.750;9.078;2024-03-23T09:21:11;4.93;;;2.90;;
2299;SDS011;1158;48.750;9.078;2024-03-23T09:23:39;5.23;;;3.20;;
2299;SDS011;1158;48.750;9.078;2024-03-23T09:26:05;6.10;;;3.43;;
2299;SDS011;1158;48.750;9.078;2024-03-23T09:28:32;6.17;;;3.30;;
2299;SDS011;1158;48.750;9.078;2024-03-23T09:31:01;12.60;;;4.00;;
2299;SDS011;1158;48.750;9.078;2024-03-23T09:33:30;7.03;;;3.83;;
2299;SDS011;1158;48.750;9.078;2024-03-23T09:35:56;8.50;;;4.70;;
2299;SDS011;1158;48.750;9.078;2024-03-23T09:38:22;6.10;;;2.97;;
2299;SDS011;1158;48.750;9.078;2024-03-23T09:40:49;6.20;;;3.70;;
2299;SDS011;1158;48.750;9.078;2024-03-23T09:43:19;8.30;;;3.80;;
2299;SDS011;1158;48.750;9.078;2024-03-23T09:45:45;10.40;;;3.83;;
2299;SDS011;1158;48.750;9.078;2024-03-23T09:48:12;7.50;;;3.70;;
2299;SDS011;1158;48.750;9.078;2024-03-23T09:50:40;10.20;;;4.00;;
2299;SDS011;1158;48.750;9.078;2024-03-23T09:53:07;10.53;;;3.67;;
2299;SDS011;1158;48.750;9.078;2024-03-23T09:55:34;9.97;;;3.90;;
2299;SDS011;1158;48.750;9.078;2024-03-23T09:58:01;10.60;;;4.40;;
2299;SDS011;1158;48.750;9.078;2024-03-23T10:00:27;7.60;;;3.63;;
2299;SDS011;1158;48.750;9.078;2024-03-23T10:02:55;9.30;;;4.00;;
2299;SDS011;1158;48.750;9.078;2024-03-23T10:05:23;12.90;;;4.70;;
2299;SDS011;1158;48.750;9.078;2024-03-23T10:07:51;8.40;;;3.50;;
2299;SDS011;1158;48.750;9.078;2024-03-23T10:10:17;11.63;;;4.07;;
2299;SDS011;1158;48.750;9.078;2024-03-23T10:12:44;7.50;;;3.20;;
2299;SDS011;1158;48.750;9.078;2024-03-23T10:15:15;13.33;;;3.20;;
2299;SDS011;1158;48.750;9.078;2024-03-23T10:17:45;7.47;;;3.30;;
2299;SDS011;1158;48.750;9.078;2024-03-23T10:20:10;9.87;;;3.60;;
2299;SDS011;1158;48.750;9.078;2024-03-23T10:22:37;7.83;;;3.30;;
2299;SDS011;1158;48.750;9.078;2024-03-23T10:25:08;10.67;;;4.73;;
2299;SDS011;1158;48.750;9.078;2024-03-23T10:27:35;5.50;;;3.47;;
2299;SDS011;1158;48.750;9.078;2024-03-23T10:30:07;6.67;;;3.23;;
2299;SDS011;1158;48.750;9.078;2024-03-23T10:32:35;10.17;;;5.07;;
2299;SDS011;1158;48.750;9.078;2024-03-23T10:35:13;6.20;;;3.37;;
2299;SDS011;1158;48.750;9.078;2024-03-23T10:37:41;7.53;;;4.40;;
2299;SDS011;1158;48.750;9.078;2024-03-23T10:40:10;10.70;;;3.90;;
2299;SDS011;1158;48.750;9.078;2024-03-23T10:42:38;11.10;;;3.47;;
2299;SDS011;1158;48.750;9.078;2024-03-23T10:45:05;10.80;;;4.20;;
2299;SDS011;1158;48.750;9.078;2024-03-23T10:47:34;6.47;;;3.73;;
2299;SDS011;1158;48.750;9.078;2024-03-23T10:50:00;6.30;;;3.90;;
2299;SDS011;1158;48.750;9.078;2024-03-23T10:52:27;16.17;;;4.30;;
2299;SDS011;1158;48.750;9.078;2024-03-23T10:54:53;6.23;;;4.00;;
2299;SDS011;1158;48.750;9.078;2024-03-23T10:57:26;4.97;;;2.90;;
2299;SDS011;1158;48.750;9.078;2024-03-23T10:59:55;8.90;;;3.10;;
2299;SDS011;1158;48.750;9.078;2024-03-23T11:02:24;4.93;;;2.60;;
2299;SDS011;1158;48.750;9.078;2024-03-23T11:04:52;7.10;;;3.07;;
2299;SDS011;1158;48.750;9.078;2024-03-23T11:10:03;5.10;;;2.80;;
2299;SDS011;1158;48.750;9.078;2024-03-23T11:12:52;16.23;;;4.33;;
2299;SDS011;1158;48.750;9.078;2024-03-23T11:15:18;7.70;;;3.17;;
2299;SDS011;1158;48.750;9.078;2024-03-23T11:17:54;7.17;;;3.67;;
2299;SDS011;1158;48.750;9.078;2024-03-23T11:20:31;10.03;;;3.40;;
2299;SDS011;1158;48.750;9.078;2024-03-23T11:22:58;8.23;;;3.10;;
2299;SDS011;1158;48.750;9.078;2024-03-23T11:25:25;7.33;;;3.63;;
2299;SDS011;1158;48.750;9.078;2024-03-23T11:27:54;6.63;;;2.80;;
2299;SDS011;1158;48.750;9.078;2024-03-23T11:30:22;7.80;;;2.67;;
2299;SDS011;1158;48.750;9.078;2024-03-23T11:32:50;6.33;;;2.70;;
2299;SDS011;1158;48.750;9.078;2024-03-23T11:35:24;6.40;;;2.87;;
2299;SDS011;1158;48.750;9.078;2024-03-23T11:38:04;6.37;;;3.00;;
2299;SDS011;1158;48.750;9.078;2024-03-23T11:40:31;6.87;;;2.47;;
2299;SDS011;1158;48.750;9.078;2024-03-23T11:43:00;4.43;;;2.37;;
2299;SDS011;1158;48.750;9.078;2024-03-23T11:45:28;6.00;;;2.20;;
2299;SDS011;1158;48.750;9.078;2024-03-23T11:48:01;3.83;;;2.20;;
2299;SDS011;1158;48.750;9.078;2024-03-23T11:50:30;2.93;;;2.03;;
2299;SDS011;1158;48.750;9.078;2024-03-23T11:53:07;6.00;;;2.03;;
2299;SDS011;1158;48.750;9.078;2024-03-23T11:55:45;3.00;;;1.73;;
2299;SDS011;1158;48.750;9.078;2024-03-23T11:58:14;7.00;;;1.90;;
2299;SDS011;1158;48.750;9.078;2024-03-23T12:00:41;3.97;;;1.73;;
2299;SDS011;1158;48.750;9.078;2024-03-23T12:03:08;6.50;;;1.43;;
2299;SDS011;1158;48.750;9.078;2024-03-23T12:05:35;7.07;;;1.80;;
2299;SDS011;1158;48.750;9.078;2024-03-23T12:08:16;11.57;;;2.50;;
2299;SDS011;1158;48.750;9.078;2024-03-23T12:10:47;4.10;;;1.50;;
2299;SDS011;1158;48.750;9.078;2024-03-23T12:13:20;6.87;;;1.60;;
2299;SDS011;1158;48.750;9.078;2024-03-23T12:15:48;10.60;;;1.90;;
2299;SDS011;1158;48.750;9.078;2024-03-23T12:18:15;8.87;;;2.60;;
2299;SDS011;1158;48.750;9.078;2024-03-23T12:20:42;8.90;;;2.40;;
2299;SDS011;1158;48.750;9.078;2024-03-23T12:23:08;12.83;;;3.60;;
2299;SDS011;1158;48.750;9.078;2024-03-23T12:25:36;5.67;;;2.33;;
2299;SDS011;1158;48.750;9.078;2024-03-23T12:28:02;6.90;;;2.10;;
2299;SDS011;1158;48.750;9.078;2024-03-23T12:30:32;7.87;;;2.47;;
2299;SDS011;1158;48.750;9.078;2024-03-23T12:32:59;2.97;;;1.77;;
2299;SDS011;1158;48.750;9.078;2024-03-23T12:35:25;7.87;;;2.83;;
2299;SDS011;1158;48.750;9.078;2024-03-23T12:37:51;7.73;;;2.10;;
2299;SDS011;1158;48.750;9.078;2024-03-23T12:40:18;6.03;;;1.87;;
2299;SDS011;1158;48.750;9.078;2024-03-23T12:42:44;4.73;;;1.90;;
2299;SDS011;1158;48.750;9.078;2024-03-23T12:45:11;6.00;;;2.60;;
2299;SDS011;1158;48.750;9.078;2024-03-23T12:47:38;10.83;;;3.00;;
2299;SDS011;1158;48.750;9.078;2024-03-23T12:50:05;6.20;;;2.53;;
2299;SDS011;1158;48.750;9.078;2024-03-23T12:52:31;8.80;;;3.03;;
2299;SDS011;1158;48.750;9.078;2024-03-23T12:54:58;10.23;;;3.03;;
2299;SDS011;1158;48.750;9.078;2024-03-23T12:57:24;7.27;;;3.07;;
2299;SDS011;1158;48.750;9.078;2024-03-23T12:59:51;7.60;;;2.70;;
2299;SDS011;1158;48.750;9.078;2024-03-23T13:02:18;8.63;;;3.97;;
2299;SDS011;1158;48.750;9.078;2024-03-23T13:04:49;10.67;;;3.27;;
2299;SDS011;1158;48.750;9.078;2024-03-23T13:07:15;6.90;;;2.60;;
2299;SDS011;1158;48.750;9.078;2024-03-23T13:09:42;10.17;;;3.80;;
2299;SDS011;1158;48.750;9.078;2024-03-23T13:12:08;6.63;;;3.00;;
2299;SDS011;1158;48.750;9.078;2024-03-23T13:14:35;11.87;;;2.67;;
2299;SDS011;1158;48.750;9.078;2024-03-23T13:17:00;6.87;;;2.77;;
2299;SDS011;1158;48.750;9.078;2024-03-23T13:19:28;9.07;;;2.97;;
2299;SDS011;1158;48.750;9.078;2024-03-23T13:21:57;7.67;;;2.70;;
2299;SDS011;1158;48.750;9.078;2024-03-23T13:24:25;5.47;;;1.93;;
2299;SDS011;1158;48.750;9.078;2024-03-23T13:26:52;9.80;;;2.10;;
2299;SDS011;1158;48.750;9.078;2024-03-23T13:29:19;8.80;;;2.20;;
2299;SDS011;1158;48.750;9.078;2024-03-23T13:31:45;4.47;;;1.50;;
2299;SDS011;1158;48.750;9.078;2024-03-23T13:34:12;6.77;;;2.00;;
2299;SDS011;1158;48.750;9.078;2024-03-23T13:36:40;5.33;;;1.53;;
2299;SDS011;1158;48.750;9.078;2024-03-23T13:39:08;4.47;;;1.70;;
2299;SDS011;1158;48.750;9.078;2024-03-23T13:41:36;6.43;;;2.00;;
2299;SDS011;1158;48.750;9.078;2024-03-23T13:44:04;5.03;;;1.70;;
2299;SDS011;1158;48.750;9.078;2024-03-23T13:46:30;10.73;;;2.67;;
2299;SDS011;1158;48.750;9.078;2024-03-23T13:48:57;3.93;;;1.40;;
2299;SDS011;1158;48.750;9.078;2024-03-23T13:51:23;3.90;;;1.40;;
2299;SDS011;1158;48.750;9.078;2024-03-23T13:53:52;4.90;;;1.70;;
2299;SDS011;1158;48.750;9.078;2024-03-23T13:56:19;4.83;;;1.70;;
2299;SDS011;1158;48.750;9.078;2024-03-23T13:58:46;3.10;;;1.47;;
2299;SDS011;1158;48.750;9.078;2024-03-23T14:01:12;5.30;;;2.07;;
2299;SDS011;1158;48.750;9.078;2024-03-23T14:03:40;4.70;;;1.83;;
2299;SDS011;1158;48.750;9.078;2024-03-23T14:06:06;8.57;;;1.70;;
2299;SDS011;1158;48.750;9.078;2024-03-23T14:08:33;6.00;;;2.30;;
2299;SDS011;1158;48.750;9.078;2024-03-23T14:11:01;3.30;;;1.80;;
2299;SDS011;1158;48.750;9.078;2024-03-23T14:13:30;4.53;;;1.47;;
2299;SDS011;1158;48.750;9.078;2024-03-23T14:15:57;3.83;;;1.40;;
2299;SDS011;1158;48.750;9.078;2024-03-23T14:18:23;3.33;;;1.33;;
2299;SDS011;1158;48.750;9.078;2024-03-23T14:20:51;2.50;;;1.37;;
2299;SDS011;1158;48.750;9.078;2024-03-23T14:23:19;4.33;;;1.80;;
2299;SDS011;1158;48.750;9.078;2024-03-23T14:25:45;2.90;;;1.20;;
2299;SDS011;1158;48.750;9.078;2024-03-23T14:28:11;3.77;;;1.30;;
2299;SDS011;1158;48.750;9.078;2024-03-23T14:30:42;3.70;;;1.23;;
2299;SDS011;1158;48.750;9.078;2024-03-23T14:33:09;2.27;;;1.30;;
2299;SDS011;1158;48.750;9.078;2024-03-23T14:35:35;4.90;;;1.40;;
2299;SDS011;1158;48.750;9.078;2024-03-23T14:38:03;2.50;;;1.50;;
2299;SDS011;1158;48.750;9.078;2024-03-23T14:40:29;1.90;;;1.07;;
2299;SDS011;1158;48.750;9.078;2024-03-23T14:42:56;2.73;;;1.30;;
2299;SDS011;1158;48.750;9.078;2024-03-23T14:45:22;3.10;;;1.27;;
2299;SDS011;1158;48.750;9.078;2024-03-23T14:47:51;2.70;;;1.30;;
2299;SDS011;1158;48.750;9.078;2024-03-23T14:50:17;7.10;;;1.33;;
2299;SDS011;1158;48.750;9.078;2024-03-23T14:52:44;2.60;;;1.37;;
2299;SDS011;1158;48.750;9.078;2024-03-23T14:55:10;7.73;;;1.50;;
2299;SDS011;1158;48.750;9.078;2024-03-23T14:57:37;2.40;;;1.40;;
2299;SDS011;1158;48.750;9.078;2024-03-23T15:00:06;3.17;;;1.43;;
2299;SDS011;1158;48.750;9.078;2024-03-23T15:02:35;4.30;;;1.53;;
2299;SDS011;1158;48.750;9.078;2024-03-23T15:05:03;3.47;;;1.60;;
2299;SDS011;1158;48.750;9.078;2024-03-23T15:07:30;3.60;;;1.30;;
2299;SDS011;1158;48.750;9.078;2024-03-23T15:09:56;2.77;;;1.50;;
2299;SDS011;1158;48.750;9.078;2024-03-23T15:12:22;4.60;;;1.30;;
2299;SDS011;1158;48.750;9.078;2024-03-23T15:14:48;8.60;;;1.30;;
2299;SDS011;1158;48.750;9.078;2024-03-23T15:17:15;5.27;;;1.53;;
2299;SDS011;1158;48.750;9.078;2024-03-23T15:19:41;3.70;;;1.50;;
2299;SDS011;1158;48.750;9.078;2024-03-23T15:22:09;3.53;;;1.47;;
2299;SDS011;1158;48.750;9.078;2024-03-23T15:24:35;5.10;;;1.37;;
2299;SDS011;1158;48.750;9.078;2024-03-23T15:27:02;5.23;;;1.70;;
2299;SDS011;1158;48.750;9.078;2024-03-23T15:29:29;4.03;;;1.30;;
2299;SDS011;1158;48.750;9.078;2024-03-23T15:31:56;3.60;;;1.30;;
2299;SDS011;1158;48.750;9.078;2024-03-23T15:34:21;3.53;;;1.40;;
2299;SDS011;1158;48.750;9.078;2024-03-23T15:36:48;4.23;;;1.20;;
2299;SDS011;1158;48.750;9.078;2024-03-23T15:39:16;3.27;;;1.30;;
2299;SDS011;1158;48.750;9.078;2024-03-23T15:41:44;5.20;;;1.50;;
2299;SDS011;1158;48.750;9.078;2024-03-23T15:44:10;2.63;;;1.30;;
2299;SDS011;1158;48.750;9.078;2024-03-23T15:46:37;3.27;;;1.50;;
2299;SDS011;1158;48.750;9.078;2024-03-23T15:49:02;2.50;;;1.40;;
2299;SDS011;1158;48.750;9.078;2024-03-23T15:51:29;4.00;;;1.40;;
2299;SDS011;1158;48.750;9.078;2024-03-23T15:53:58;4.63;;;1.43;;
2299;SDS011;1158;48.750;9.078;2024-03-23T15:56:26;3.13;;;1.30;;
2299;SDS011;1158;48.750;9.078;2024-03-23T15:58:53;7.13;;;1.47;;
2299;SDS011;1158;48.750;9.078;2024-03-23T16:01:20;1.87;;;0.90;;
2299;SDS011;1158;48.750;9.078;2024-03-23T16:03:46;2.60;;;1.33;;
2299;SDS011;1158;48.750;9.078;2024-03-23T16:06:13;3.63;;;1.30;;
2299;SDS011;1158;48.750;9.078;2024-03-23T16:08:39;5.63;;;1.20;;